Monday, November 20, 2017, 1:56 AM GMT
Back to Local

CWNQ, Nicolet Automatic Weather Reporting System

Location: , , Canada Lat: 46.217
Local Time: 1:56 AM GMT ( 1:56 GMT) Lon: -72.65
Time Zone: GMT Elev: 32 ft

Show me the last for .
Show Coded

Time T Td Feel RH Dir Speed Gust Alt SLP Vis Weather Sky Remarks
2017-11-20 01:00 30 22 16 72 280° 15 23 - 29.49 0 Peak wind: 27 mph (24 kts) from 270° at 18 min
2017-11-20 00:00 30 21 16 67 280° 18 26 - 29.46 0 Peak wind: 27 mph (24 kts) from 280° at 12 min
2017-11-19 23:00 31 23 17 72 270° 17 26 - 29.44 0 Peak wind: 27 mph (24 kts) from 260° at 32 min
2017-11-19 22:00 30 23 16 73 270° 18 28 - 29.39 0 Peak wind: 28 mph (25 kts) from 270° at 38 min
2017-11-19 21:00 30 22 16 72 270° 17 25 - 29.36 0 Peak wind: 27 mph (24 kts) from 280° at 42 min
2017-11-19 19:00 30 29 17 92 270° 15 22 - 29.26 0 Peak wind: 24 mph (21 kts) from 280° at 18 min
2017-11-19 18:00 31 30 19 93 270° 14 20 - 29.21 0 Peak wind: 20 mph (18 kts) from 260° at 49 min
Pressure rising rapidly
2017-11-19 17:00 31 30 18 95 300° 13 24 - 29.15 0 Peak wind: 24 mph (21 kts) from 300° at 53 min
1-hr Precip Total: 0.05"
2017-11-19 16:00 34 32 26 93 310° 9 - - 29.10 0 None
2017-11-19 15:00 34 31 28 89 340° 7 - - 29.05 0 1-hr Precip Total: 0.04"
2017-11-19 14:00 34 31 29 89 20° 6 - - 29.05 0 None
2017-11-19 10:00 31 31 22 99 50° 12 - - 29.12 0 None
2017-11-19 09:00 31 31 24 100 60° 8 - - 29.15 0 None
2017-11-19 08:00 31 33 24 105 60° 8 - - 29.21 0 None
2017-11-19 07:00 31 33 24 105 60° 8 - - 29.23 0 Pressure falling rapidly
2017-11-19 06:00 31 30 25 95 60° 7 - - 29.29 0 None
2017-11-19 05:00 31 29 27 90 70° 5 - - 29.34 0 None
2017-11-19 04:00 31 25 25 77 60° 7 - - 29.39 0 None
2017-11-19 03:00 32 22 24 66 60° 9 - - 29.43 0 None
2017-11-19 02:00 31 22 25 66 60° 7 - - 29.48 0 None

Support USWX by starting your Amazon purchase here.